createdAt,value
2018-09-11T00:00:53.676Z,3.57
2018-09-11T00:03:21.971Z,3.80
2018-09-11T00:05:50.240Z,4.00
2018-09-11T00:08:18.515Z,3.60
2018-09-11T00:10:46.795Z,3.73
2018-09-11T00:13:15.070Z,3.90
2018-09-11T00:15:43.341Z,3.80
2018-09-11T00:18:11.686Z,3.70
2018-09-11T00:20:39.951Z,4.23
2018-09-11T00:23:08.233Z,3.80
2018-09-11T00:25:36.493Z,3.83
2018-09-11T00:28:04.795Z,3.50
2018-09-11T00:30:33.093Z,3.67
2018-09-11T00:33:01.363Z,3.93
2018-09-11T00:35:29.660Z,3.37
2018-09-11T00:37:57.940Z,3.67
2018-09-11T00:40:26.210Z,3.77
2018-09-11T00:42:54.492Z,3.50
2018-09-11T00:45:22.759Z,3.87
2018-09-11T00:47:51.049Z,3.93
2018-09-11T00:50:19.320Z,4.23
2018-09-11T00:52:47.597Z,4.13
2018-09-11T00:55:15.874Z,3.80
2018-09-11T00:57:44.148Z,3.97
2018-09-11T01:00:12.418Z,4.83
2018-09-11T01:02:40.685Z,4.20
2018-09-11T01:05:08.956Z,3.80
2018-09-11T01:07:37.248Z,4.00
2018-09-11T01:10:07.711Z,4.60
2018-09-11T01:12:35.974Z,4.00
2018-09-11T01:15:04.702Z,3.80
2018-09-11T01:17:32.970Z,4.10
2018-09-11T01:20:01.235Z,3.73
2018-09-11T01:22:29.547Z,4.20
2018-09-11T01:24:57.822Z,4.00
2018-09-11T01:27:26.206Z,4.10
2018-09-11T01:29:54.473Z,4.13
2018-09-11T01:32:22.735Z,4.30
2018-09-11T01:34:51.036Z,4.10
2018-09-11T01:37:19.302Z,4.20
2018-09-11T01:39:47.563Z,4.60
2018-09-11T01:42:15.850Z,3.97
2018-09-11T01:44:44.129Z,4.37
2018-09-11T01:47:12.378Z,4.07
2018-09-11T01:49:40.658Z,4.07
2018-09-11T01:52:08.919Z,4.53
2018-09-11T01:54:37.199Z,3.53
2018-09-11T01:57:05.974Z,4.43
2018-09-11T01:59:34.358Z,3.97
2018-09-11T02:02:02.611Z,3.60
2018-09-11T02:04:31.206Z,4.13
2018-09-11T02:06:59.490Z,4.00
2018-09-11T02:09:27.734Z,3.70
2018-09-11T02:11:55.986Z,4.23
2018-09-11T02:14:24.238Z,4.27
2018-09-11T02:16:52.505Z,4.40
2018-09-11T02:19:20.762Z,4.17
2018-09-11T02:21:49.012Z,4.30
2018-09-11T02:24:17.267Z,4.37
2018-09-11T02:26:45.514Z,4.27
2018-09-11T02:29:13.775Z,4.37
2018-09-11T02:31:42.025Z,4.43
2018-09-11T02:34:10.275Z,4.17
2018-09-11T02:36:38.523Z,4.10
2018-09-11T02:39:08.722Z,4.33
2018-09-11T02:41:37.120Z,4.33
2018-09-11T02:44:05.711Z,4.63
2018-09-11T02:46:33.980Z,4.27
2018-09-11T02:49:02.234Z,4.10
2018-09-11T02:51:30.511Z,4.43
2018-09-11T02:53:58.782Z,4.90
2018-09-11T02:56:27.159Z,4.30
2018-09-11T02:58:55.436Z,4.30
2018-09-11T03:01:23.731Z,4.50
2018-09-11T03:03:52.010Z,4.63
2018-09-11T03:06:20.742Z,4.40
2018-09-11T03:08:49.094Z,4.23
2018-09-11T03:11:17.365Z,4.30
2018-09-11T03:13:45.638Z,4.47
2018-09-11T03:16:14.091Z,4.67
2018-09-11T03:18:42.373Z,4.70
2018-09-11T03:21:10.647Z,4.40
2018-09-11T03:23:38.930Z,4.10
2018-09-11T03:26:07.415Z,4.47
2018-09-11T03:28:35.815Z,4.23
2018-09-11T03:31:04.219Z,4.73
2018-09-11T03:33:32.594Z,4.63
2018-09-11T03:36:00.867Z,4.50
2018-09-11T03:38:29.158Z,4.20
2018-09-11T03:40:57.435Z,4.17
2018-09-11T03:43:25.724Z,4.40
2018-09-11T03:45:53.996Z,4.60
2018-09-11T03:48:22.333Z,4.47
2018-09-11T03:50:51.326Z,4.47
2018-09-11T03:53:19.837Z,4.23
2018-09-11T03:55:48.499Z,4.43
2018-09-11T03:58:17.784Z,4.40
2018-09-11T04:00:46.063Z,4.70
2018-09-11T04:03:15.222Z,4.43
2018-09-11T04:05:43.775Z,4.50
2018-09-11T04:08:12.029Z,4.47
2018-09-11T04:10:40.269Z,4.90
2018-09-11T04:13:08.554Z,4.47
2018-09-11T04:15:36.871Z,5.17
2018-09-11T04:18:05.264Z,4.83
2018-09-11T04:20:33.501Z,5.13
2018-09-11T04:23:01.790Z,5.43
2018-09-11T04:25:30.134Z,5.60
2018-09-11T04:27:58.362Z,4.97
2018-09-11T04:30:26.620Z,5.20
2018-09-11T04:32:54.995Z,5.43
2018-09-11T04:35:23.250Z,4.60
2018-09-11T04:37:51.493Z,5.27
2018-09-11T04:40:19.738Z,5.10
2018-09-11T04:42:48.037Z,5.10
2018-09-11T04:45:16.268Z,5.17
2018-09-11T04:47:44.535Z,4.93
2018-09-11T04:50:12.786Z,5.73
2018-09-11T04:52:41.044Z,5.70
2018-09-11T04:55:09.306Z,5.53
2018-09-11T04:57:37.566Z,5.80
2018-09-11T05:00:06.015Z,5.90
2018-09-11T05:02:34.335Z,5.50
2018-09-11T05:05:02.634Z,5.23
2018-09-11T05:07:30.902Z,6.13
2018-09-11T05:09:59.180Z,6.03
2018-09-11T05:12:27.435Z,5.40
2018-09-11T05:14:55.682Z,6.30
2018-09-11T05:17:24.084Z,5.90
2018-09-11T05:19:52.343Z,5.83
2018-09-11T05:22:20.603Z,6.27
2018-09-11T05:24:48.863Z,5.80
2018-09-11T05:27:17.247Z,6.00
2018-09-11T05:29:45.442Z,6.07
2018-09-11T05:32:13.699Z,6.47
2018-09-11T05:34:41.964Z,5.80
2018-09-11T05:37:10.222Z,6.20
2018-09-11T05:39:38.467Z,5.70
2018-09-11T05:42:06.770Z,6.10
2018-09-11T05:44:35.010Z,5.57
2018-09-11T05:47:03.352Z,5.37
2018-09-11T05:49:31.602Z,6.37
2018-09-11T05:51:59.874Z,5.83
2018-09-11T05:54:28.142Z,5.80
2018-09-11T05:56:56.479Z,5.53
2018-09-11T05:59:24.763Z,5.93
2018-09-11T06:01:53.063Z,6.10
2018-09-11T06:04:21.338Z,5.40
2018-09-11T06:06:49.619Z,5.70
2018-09-11T06:09:17.910Z,5.60
2018-09-11T06:11:46.195Z,5.20
2018-09-11T06:14:14.476Z,6.27
2018-09-11T06:16:42.789Z,5.67
2018-09-11T06:19:11.065Z,5.80
2018-09-11T06:21:39.347Z,5.37
2018-09-11T06:24:07.623Z,5.30
2018-09-11T06:26:35.906Z,5.67
2018-09-11T06:29:04.229Z,5.63
2018-09-11T06:31:32.478Z,5.77
2018-09-11T06:34:00.758Z,6.27
2018-09-11T06:36:29.037Z,5.70
2018-09-11T06:38:57.310Z,6.33
2018-09-11T06:41:25.595Z,5.87
2018-09-11T06:43:53.878Z,5.87
2018-09-11T06:46:22.187Z,5.87
2018-09-11T06:48:50.521Z,6.40
2018-09-11T06:51:18.762Z,6.60
2018-09-11T06:53:47.037Z,7.07
2018-09-11T06:56:15.325Z,7.60
2018-09-11T06:58:43.647Z,8.20
2018-09-11T07:01:11.931Z,7.10
2018-09-11T07:03:40.206Z,7.70
2018-09-11T07:06:08.491Z,6.50
2018-09-11T07:08:36.833Z,6.83
2018-09-11T07:11:05.248Z,6.87
2018-09-11T07:13:33.545Z,6.33
2018-09-11T07:16:01.846Z,6.00
2018-09-11T07:18:30.131Z,6.40
2018-09-11T07:20:58.406Z,6.33
2018-09-11T07:23:26.703Z,6.27
2018-09-11T07:25:55.052Z,5.97
2018-09-11T07:28:23.278Z,5.43
2018-09-11T07:30:51.569Z,5.50
2018-09-11T07:33:19.852Z,4.87
2018-09-11T07:35:48.150Z,5.07
2018-09-11T07:38:16.819Z,4.15
2018-09-11T07:40:45.530Z,4.53
2018-09-11T07:43:13.810Z,4.40
2018-09-11T07:45:42.091Z,4.65
2018-09-11T07:48:10.362Z,4.25
2018-09-11T07:50:38.630Z,4.90
2018-09-11T07:53:06.882Z,4.75
2018-09-11T07:55:35.138Z,4.87
2018-09-11T07:58:03.506Z,4.80
2018-09-11T08:00:31.708Z,4.72
2018-09-11T08:02:59.997Z,4.53
2018-09-11T08:05:28.279Z,4.08
2018-09-11T08:07:56.558Z,4.75
2018-09-11T08:10:24.858Z,4.42
2018-09-11T08:12:53.134Z,3.45
2018-09-11T08:15:21.426Z,3.62
2018-09-11T08:17:49.727Z,3.30
2018-09-11T08:20:18.025Z,3.25
2018-09-11T08:22:46.298Z,3.02
2018-09-11T08:25:14.574Z,3.12
2018-09-11T08:27:42.848Z,2.83
2018-09-11T08:30:11.153Z,3.37
2018-09-11T08:32:39.475Z,3.20
2018-09-11T08:35:07.778Z,2.85
2018-09-11T08:37:36.067Z,2.98
2018-09-11T08:40:04.490Z,2.80
2018-09-11T08:42:32.758Z,3.55
2018-09-11T08:45:01.037Z,3.33
2018-09-11T08:47:29.320Z,3.47
2018-09-11T08:49:57.617Z,3.77
2018-09-11T08:52:25.913Z,3.50
2018-09-11T08:54:54.178Z,3.40
2018-09-11T08:57:22.454Z,3.05
2018-09-11T08:59:50.718Z,3.55
2018-09-11T09:02:18.999Z,2.90
2018-09-11T09:04:47.242Z,3.02
2018-09-11T09:07:15.494Z,3.20
2018-09-11T09:09:43.750Z,2.87
2018-09-11T09:12:12.010Z,2.58
2018-09-11T09:14:40.273Z,2.70
2018-09-11T09:17:08.547Z,2.30
2018-09-11T09:19:36.809Z,2.42
2018-09-11T09:22:05.105Z,2.15
2018-09-11T09:24:33.367Z,2.62
2018-09-11T09:27:01.668Z,2.37
2018-09-11T09:29:29.941Z,2.30
2018-09-11T09:31:58.235Z,2.35
2018-09-11T09:34:26.517Z,2.17
2018-09-11T09:36:54.868Z,2.37
2018-09-11T09:39:23.087Z,2.50
2018-09-11T09:41:51.358Z,2.12
2018-09-11T09:44:19.616Z,1.90
2018-09-11T09:46:47.906Z,2.20
2018-09-11T09:49:16.169Z,2.50
2018-09-11T09:51:44.453Z,2.33
2018-09-11T09:54:12.711Z,2.10
2018-09-11T09:56:40.987Z,2.20
2018-09-11T09:59:09.234Z,2.30
2018-09-11T10:01:42.982Z,1.98
2018-09-11T10:04:11.250Z,1.90
2018-09-11T10:06:39.535Z,1.90
2018-09-11T10:09:09.047Z,2.20
2018-09-11T10:11:37.315Z,2.05
2018-09-11T10:14:05.626Z,2.42
2018-09-11T10:16:33.885Z,2.10
2018-09-11T10:19:02.134Z,2.42
2018-09-11T10:21:30.386Z,2.33
2018-09-11T10:23:58.661Z,2.50
2018-09-11T10:26:26.905Z,2.42
2018-09-11T10:28:55.225Z,2.37
2018-09-11T10:31:23.494Z,2.17
2018-09-11T10:33:51.816Z,2.00
2018-09-11T10:36:20.044Z,1.90
2018-09-11T10:38:48.325Z,1.95
2018-09-11T10:41:16.575Z,2.50
2018-09-11T10:43:44.822Z,2.05
2018-09-11T10:46:13.073Z,2.40
2018-09-11T10:48:41.396Z,2.08
2018-09-11T10:51:09.634Z,2.33
2018-09-11T10:53:37.886Z,2.62
2018-09-11T10:56:06.418Z,2.30
2018-09-11T10:58:34.697Z,2.02
2018-09-11T11:01:03.160Z,2.30
2018-09-11T11:03:31.443Z,2.00
2018-09-11T11:05:59.729Z,1.75
2018-09-11T11:08:28.007Z,2.12
2018-09-11T11:10:56.274Z,1.92
2018-09-11T11:13:24.566Z,1.82
2018-09-11T11:15:52.871Z,2.02
2018-09-11T11:18:21.155Z,1.85
2018-09-11T11:20:49.428Z,2.05
2018-09-11T11:23:17.697Z,2.15
2018-09-11T11:25:45.982Z,2.00
2018-09-11T11:28:14.278Z,2.12
2018-09-11T11:30:42.568Z,2.20
2018-09-11T11:33:10.858Z,2.50
2018-09-11T11:35:39.149Z,2.17
2018-09-11T11:38:07.530Z,2.10
2018-09-11T11:40:35.818Z,1.75
2018-09-11T11:43:04.097Z,2.12
2018-09-11T11:45:32.384Z,2.00
2018-09-11T11:48:00.672Z,2.02
2018-09-11T11:50:28.955Z,1.70
2018-09-11T11:52:57.283Z,2.12
2018-09-11T11:55:25.669Z,2.10
2018-09-11T11:57:53.875Z,1.50
2018-09-11T12:00:22.138Z,1.80
2018-09-11T12:02:50.429Z,2.00
2018-09-11T12:05:18.679Z,1.72
2018-09-11T12:07:46.963Z,2.22
2018-09-11T12:10:15.218Z,2.17
2018-09-11T12:12:43.491Z,2.15
2018-09-11T12:15:11.761Z,2.12
2018-09-11T12:17:40.014Z,1.90
2018-09-11T12:20:08.287Z,2.08
2018-09-11T12:22:36.554Z,1.98
2018-09-11T12:25:04.849Z,2.27
2018-09-11T12:27:33.310Z,2.27
2018-09-11T12:30:01.571Z,2.20
2018-09-11T12:32:29.831Z,1.95
2018-09-11T12:34:58.145Z,2.15
2018-09-11T12:37:26.533Z,2.10
2018-09-11T12:39:54.794Z,1.90
2018-09-11T12:42:23.134Z,1.80
2018-09-11T12:44:51.773Z,2.08
2018-09-11T12:47:21.020Z,1.95
2018-09-11T12:49:49.016Z,1.82
2018-09-11T12:52:17.427Z,2.10
2018-09-11T12:54:45.698Z,1.87
2018-09-11T12:57:13.966Z,2.00
2018-09-11T12:59:42.767Z,2.00
2018-09-11T13:02:11.119Z,2.25
2018-09-11T13:04:39.403Z,2.17
2018-09-11T13:07:08.411Z,1.85
2018-09-11T13:09:36.779Z,2.17
2018-09-11T13:12:05.110Z,2.40
2018-09-11T13:14:33.376Z,2.40
2018-09-11T13:17:01.638Z,2.33
2018-09-11T13:19:29.890Z,2.40
2018-09-11T13:21:58.171Z,2.17
2018-09-11T13:24:26.420Z,2.30
2018-09-11T13:26:54.715Z,2.08
2018-09-11T13:29:22.966Z,2.25
2018-09-11T13:31:51.352Z,1.95
2018-09-11T13:34:19.628Z,2.12
2018-09-11T13:36:47.974Z,2.20
2018-09-11T13:39:16.825Z,2.20
2018-09-11T13:41:45.118Z,2.45
2018-09-11T13:44:13.365Z,2.27
2018-09-11T13:46:41.668Z,2.42
2018-09-11T13:49:09.918Z,2.25
2018-09-11T13:51:38.195Z,2.30
2018-09-11T13:54:06.534Z,2.40
2018-09-11T13:56:35.087Z,2.08
2018-09-11T13:59:03.359Z,2.55
2018-09-11T14:01:31.859Z,2.20
2018-09-11T14:04:00.806Z,2.30
2018-09-11T14:06:29.407Z,2.40
2018-09-11T14:08:57.674Z,2.47
2018-09-11T14:11:25.923Z,2.55
2018-09-11T14:13:54.271Z,2.70
2018-09-11T14:16:22.964Z,2.55
2018-09-11T14:18:51.591Z,2.62
2018-09-11T14:21:20.342Z,2.55
2018-09-11T14:23:48.651Z,2.45
2018-09-11T14:26:17.461Z,2.17
2018-09-11T14:28:45.703Z,2.60
2018-09-11T14:31:13.970Z,2.80
2018-09-11T14:33:42.502Z,2.33
2018-09-11T14:36:10.752Z,2.50
2018-09-11T14:38:39.248Z,2.60
2018-09-11T14:41:07.514Z,2.35
2018-09-11T14:43:36.348Z,2.50
2018-09-11T14:46:04.582Z,2.72
2018-09-11T14:48:32.874Z,3.17
2018-09-11T14:51:01.115Z,2.52
2018-09-11T14:53:29.358Z,2.70
2018-09-11T14:55:57.614Z,2.20
2018-09-11T14:58:26.061Z,2.85
2018-09-11T15:00:55.304Z,2.27
2018-09-11T15:03:23.812Z,2.40
2018-09-11T15:05:52.194Z,2.75
2018-09-11T15:08:21.526Z,2.58
2018-09-11T15:10:49.843Z,2.52
2018-09-11T15:13:18.136Z,2.40
2018-09-11T15:15:46.411Z,2.58
2018-09-11T15:18:14.703Z,2.72
2018-09-11T15:20:43.522Z,2.85
2018-09-11T15:23:11.822Z,2.30
2018-09-11T15:25:40.102Z,3.05
2018-09-11T15:28:08.635Z,3.30
2018-09-11T15:30:37.853Z,2.63
2018-09-11T15:33:07.255Z,2.55
2018-09-11T15:35:35.577Z,2.62
2018-09-11T15:38:03.954Z,2.60
2018-09-11T15:40:32.230Z,2.42
2018-09-11T15:43:00.513Z,2.50
2018-09-11T15:45:28.787Z,2.40
2018-09-11T15:47:57.394Z,2.30
2018-09-11T15:50:25.673Z,2.57
2018-09-11T15:52:53.948Z,2.40
2018-09-11T15:55:22.230Z,2.45
2018-09-11T15:57:50.602Z,2.13
2018-09-11T16:00:18.906Z,2.50
2018-09-11T16:02:47.390Z,2.53
2018-09-11T16:05:16.835Z,2.70
2018-09-11T16:07:45.101Z,2.70
2018-09-11T16:10:13.417Z,2.40
2018-09-11T16:12:41.706Z,2.50
2018-09-11T16:15:10.117Z,2.93
2018-09-11T16:17:38.344Z,2.67
2018-09-11T16:20:07.030Z,2.10
2018-09-11T16:22:35.456Z,2.40
2018-09-11T16:25:04.754Z,2.58
2018-09-11T16:27:33.102Z,2.63
2018-09-11T16:30:01.484Z,2.47
2018-09-11T16:32:30.805Z,2.57
2018-09-11T16:34:59.120Z,2.47
2018-09-11T16:37:27.610Z,2.57
2018-09-11T16:39:55.990Z,2.40
2018-09-11T16:42:24.656Z,2.37
2018-09-11T16:44:53.024Z,2.27
2018-09-11T16:47:21.605Z,2.57
2018-09-11T16:49:49.937Z,2.77
2018-09-11T16:52:18.222Z,2.70
2018-09-11T16:54:46.568Z,2.43
2018-09-11T16:57:14.826Z,2.50
2018-09-11T16:59:43.116Z,2.50
2018-09-11T17:02:11.448Z,2.83
2018-09-11T17:04:39.632Z,2.70
2018-09-11T17:07:07.898Z,2.47
2018-09-11T17:09:36.139Z,2.23
2018-09-11T17:12:04.419Z,2.57
2018-09-11T17:14:32.661Z,2.33
2018-09-11T17:17:00.898Z,2.80
2018-09-11T17:19:29.225Z,2.40
2018-09-11T17:21:57.519Z,2.87
2018-09-11T17:24:25.790Z,2.80
2018-09-11T17:26:54.037Z,2.23
2018-09-11T17:29:22.290Z,2.70
2018-09-11T17:31:50.537Z,2.63
2018-09-11T17:34:18.781Z,2.50
2018-09-11T17:36:47.037Z,2.50
2018-09-11T17:39:15.290Z,2.40
2018-09-11T17:41:43.973Z,2.30
2018-09-11T17:44:12.307Z,2.30
2018-09-11T17:46:40.603Z,2.63
2018-09-11T17:49:08.969Z,2.57
2018-09-11T17:51:37.433Z,2.73
2018-09-11T17:54:06.954Z,2.70
2018-09-11T17:56:35.209Z,2.50
2018-09-11T17:59:03.565Z,2.87
2018-09-11T18:01:32.549Z,2.37
2018-09-11T18:04:01.466Z,2.57
2018-09-11T18:06:31.944Z,2.83
2018-09-11T18:09:00.761Z,2.67
2018-09-11T18:11:29.685Z,2.53
2018-09-11T18:13:58.005Z,2.60
2018-09-11T18:16:26.394Z,2.47
2018-09-11T18:18:54.714Z,2.80
2018-09-11T18:21:22.958Z,3.20
2018-09-11T18:23:51.303Z,2.77
2018-09-11T18:26:19.836Z,2.83
2018-09-11T18:28:48.262Z,3.00
2018-09-11T18:31:16.798Z,3.00
2018-09-11T18:33:45.095Z,3.07
2018-09-11T18:36:13.370Z,3.10
2018-09-11T18:38:41.761Z,3.13
2018-09-11T18:41:10.031Z,3.00
2018-09-11T18:43:38.319Z,2.90
2018-09-11T18:46:06.716Z,3.13
2018-09-11T18:48:34.987Z,2.50
2018-09-11T18:51:03.272Z,2.80
2018-09-11T18:53:31.631Z,2.77
2018-09-11T18:55:59.972Z,3.30
2018-09-11T18:58:30.311Z,3.10
2018-09-11T19:01:00.882Z,2.83
2018-09-11T19:03:30.336Z,2.80
2018-09-11T19:06:00.368Z,3.03
2018-09-11T19:08:28.798Z,3.13
2018-09-11T19:10:57.183Z,3.33
2018-09-11T19:13:25.470Z,3.27
2018-09-11T19:15:53.759Z,3.07
2018-09-11T19:18:22.207Z,3.17
2018-09-11T19:20:50.561Z,2.87
2018-09-11T19:23:18.867Z,3.13
2018-09-11T19:25:47.200Z,3.47
2018-09-11T19:28:15.453Z,2.90
2018-09-11T19:30:43.792Z,3.03
2018-09-11T19:33:12.036Z,2.80
2018-09-11T19:35:40.842Z,3.43
2018-09-11T19:38:09.096Z,3.10
2018-09-11T19:40:37.421Z,3.30
2018-09-11T19:43:05.672Z,3.20
2018-09-11T19:45:34.202Z,3.20
2018-09-11T19:48:02.569Z,3.30
2018-09-11T19:50:30.889Z,2.90
2018-09-11T19:52:59.109Z,3.63
2018-09-11T19:55:28.180Z,3.70
2018-09-11T19:57:56.761Z,3.20
2018-09-11T20:00:25.026Z,3.37
2018-09-11T20:02:53.370Z,3.47
2018-09-11T20:05:21.652Z,4.17
2018-09-11T20:07:49.923Z,3.57
2018-09-11T20:10:18.204Z,3.00
2018-09-11T20:12:46.479Z,3.30
2018-09-11T20:15:14.767Z,3.10
2018-09-11T20:17:43.036Z,2.97
2018-09-11T20:20:11.648Z,3.50
2018-09-11T20:22:39.927Z,3.40
2018-09-11T20:25:08.236Z,3.40
2018-09-11T20:27:36.518Z,3.33
2018-09-11T20:30:04.970Z,3.23
2018-09-11T20:32:33.238Z,3.57
2018-09-11T20:35:01.587Z,3.37
2018-09-11T20:37:29.969Z,3.50
2018-09-11T20:39:58.165Z,3.43
2018-09-11T20:42:26.421Z,3.13
2018-09-11T20:44:54.757Z,3.77
2018-09-11T20:47:23.367Z,3.60
2018-09-11T20:49:51.802Z,3.90
2018-09-11T20:52:20.084Z,2.93
2018-09-11T20:54:48.362Z,3.63
2018-09-11T20:57:16.735Z,3.83
2018-09-11T20:59:45.016Z,3.60
2018-09-11T21:02:13.282Z,3.43
2018-09-11T21:04:41.569Z,3.40
2018-09-11T21:07:09.848Z,3.67
2018-09-11T21:09:38.139Z,3.83
2018-09-11T21:12:06.415Z,4.20
2018-09-11T21:14:34.686Z,4.30
2018-09-11T21:17:02.949Z,4.37
2018-09-11T21:19:31.227Z,4.20
2018-09-11T21:21:59.498Z,4.07
2018-09-11T21:24:27.784Z,3.97
2018-09-11T21:26:56.055Z,4.37
2018-09-11T21:29:24.453Z,4.17
2018-09-11T21:31:52.730Z,4.10
2018-09-11T21:34:21.016Z,3.83
2018-09-11T21:36:49.315Z,4.70
2018-09-11T21:39:17.585Z,4.63
2018-09-11T21:41:45.850Z,4.67
2018-09-11T21:44:14.126Z,4.37
2018-09-11T21:46:42.398Z,4.27
2018-09-11T21:49:10.673Z,4.53
2018-09-11T21:51:38.959Z,4.33
2018-09-11T21:54:07.228Z,4.43
2018-09-11T21:56:35.530Z,4.23
2018-09-11T21:59:03.933Z,4.30
2018-09-11T22:01:37.695Z,4.67
2018-09-11T22:04:05.978Z,4.90
2018-09-11T22:06:34.267Z,4.37
2018-09-11T22:09:02.543Z,4.37
2018-09-11T22:11:30.823Z,4.90
2018-09-11T22:13:59.098Z,4.30
2018-09-11T22:16:27.377Z,4.00
2018-09-11T22:18:55.642Z,4.73
2018-09-11T22:21:23.922Z,4.20
2018-09-11T22:23:52.259Z,4.27
2018-09-11T22:26:20.561Z,4.47
2018-09-11T22:28:48.832Z,4.33
2018-09-11T22:31:17.107Z,4.50
2018-09-11T22:33:45.406Z,4.80
2018-09-11T22:36:13.701Z,4.90
2018-09-11T22:38:41.993Z,4.60
2018-09-11T22:41:10.367Z,4.43
2018-09-11T22:43:38.786Z,4.37
2018-09-11T22:46:07.076Z,4.57
2018-09-11T22:48:35.455Z,4.40
2018-09-11T22:51:03.756Z,4.67
2018-09-11T22:53:32.348Z,4.47
2018-09-11T22:56:00.619Z,4.50
2018-09-11T22:58:28.898Z,4.70
2018-09-11T23:00:57.214Z,4.03
2018-09-11T23:03:25.495Z,4.03
2018-09-11T23:05:53.861Z,4.50
2018-09-11T23:08:22.137Z,4.23
2018-09-11T23:10:50.415Z,4.03
2018-09-11T23:13:18.915Z,4.63
2018-09-11T23:15:47.232Z,3.93
2018-09-11T23:18:15.504Z,4.40
2018-09-11T23:20:43.803Z,4.00
2018-09-11T23:23:12.163Z,4.20
2018-09-11T23:25:40.455Z,5.10
2018-09-11T23:28:08.799Z,4.73
2018-09-11T23:30:37.123Z,4.30
2018-09-11T23:33:05.692Z,4.47
2018-09-11T23:35:34.123Z,4.50
2018-09-11T23:38:02.588Z,4.70
2018-09-11T23:40:30.895Z,4.60
2018-09-11T23:42:59.175Z,4.50
2018-09-11T23:45:27.458Z,4.60
2018-09-11T23:47:55.838Z,5.13
2018-09-11T23:50:24.135Z,5.37
2018-09-11T23:52:52.424Z,5.00
2018-09-11T23:55:20.707Z,4.53
2018-09-11T23:57:48.981Z,3.83
